Time;durP1;ratioP1;P1;durP2;ratioP2;P2;SDS_P1;SDS_P2;PMS_P1;PMS_P2;Temp;Humidity;BMP_temperature;BMP_pressure;BME280_temperature;BME280_humidity;BME280_pressure;Samples;Min_cycle;Max_cycle;Signal;HPM_P1;HPM_P2
2022/07/19 00:01:21;;;;;;;10.15;4.57;;;;;;;21.95;61.97;101694.72;5092214;28;20321;-61
2022/07/19 00:03:46;;;;;;;10.93;4.47;;;;;;;21.95;62.02;101688.50;5091818;28;20439;-60
2022/07/19 00:06:11;;;;;;;7.87;4.60;;;;;;;21.89;62.59;101685.19;5092137;28;20266;-62
2022/07/19 00:08:37;;;;;;;7.82;4.60;;;;;;;21.83;62.51;101684.59;5092370;28;20269;-61
2022/07/19 00:11:02;;;;;;;9.98;4.65;;;;;;;21.82;62.71;101688.19;5092110;28;20123;-62
2022/07/19 00:13:27;;;;;;;10.55;4.90;;;;;;;21.75;63.29;101682.31;5092028;28;20355;-62
2022/07/19 00:15:53;;;;;;;8.40;4.70;;;;;;;21.82;63.13;101677.53;5092036;28;20085;-60
2022/07/19 00:18:18;;;;;;;10.50;5.00;;;;;;;21.77;63.03;101677.78;5091485;28;20027;-61
2022/07/19 00:20:43;;;;;;;11.93;4.75;;;;;;;21.69;63.13;101677.25;5092106;28;20035;-61
2022/07/19 00:23:09;;;;;;;7.72;4.93;;;;;;;21.55;63.64;101677.03;5091970;28;20075;-61
2022/07/19 00:25:34;;;;;;;13.90;4.50;;;;;;;21.60;63.60;101674.16;5091897;28;20036;-60
2022/07/19 00:27:59;;;;;;;9.07;4.90;;;;;;;21.64;63.71;101667.78;5091609;28;20028;-60
2022/07/19 00:30:24;;;;;;;6.03;4.40;;;;;;;21.68;63.00;101666.66;5091759;28;20027;-61
2022/07/19 00:32:50;;;;;;;8.77;4.97;;;;;;;21.67;62.96;101665.81;5091782;28;20286;-61
2022/07/19 00:35:15;;;;;;;11.25;5.60;;;;;;;21.63;62.59;101668.69;5091834;28;20550;-60
2022/07/19 00:37:40;;;;;;;12.90;4.88;;;;;;;21.56;62.74;101662.78;5091989;28;20115;-60
2022/07/19 00:40:06;;;;;;;9.38;4.78;;;;;;;21.46;63.18;101664.16;5091587;28;20038;-60
2022/07/19 00:42:31;;;;;;;8.45;4.50;;;;;;;21.48;63.36;101656.94;5091490;28;20039;-61
2022/07/19 00:44:57;;;;;;;8.87;5.17;;;;;;;21.44;63.24;101663.34;5091641;28;20027;-60
2022/07/19 00:47:23;;;;;;;7.33;4.80;;;;;;;21.44;63.50;101661.56;5091498;28;20342;-61
2022/07/19 00:49:48;;;;;;;7.22;4.75;;;;;;;21.38;63.76;101660.97;5091819;28;20281;-60
2022/07/19 00:52:14;;;;;;;8.43;4.88;;;;;;;21.29;63.93;101656.06;5091521;28;20036;-61
2022/07/19 00:54:42;;;;;;;7.13;5.00;;;;;;;21.30;63.68;101660.47;5091622;28;20028;-61
2022/07/19 00:57:09;;;;;;;8.85;5.00;;;;;;;21.27;63.83;101657.94;5091544;28;20028;-60
2022/07/19 00:59:35;;;;;;;8.30;4.85;;;;;;;21.15;64.47;101665.47;5091454;28;20036;-60
2022/07/19 01:02:00;;;;;;;6.22;4.72;;;;;;;21.19;64.18;101660.88;5091514;28;20436;-59
2022/07/19 01:04:27;;;;;;;11.40;5.30;;;;;;;21.18;63.76;101654.69;5091485;28;20028;-59
2022/07/19 01:06:53;;;;;;;9.60;5.63;;;;;;;21.08;64.31;101655.19;5091565;28;20686;-59
2022/07/19 01:09:18;;;;;;;9.23;4.63;;;;;;;21.06;64.28;101654.38;5091462;28;20039;-61
2022/07/19 01:11:43;;;;;;;9.75;5.13;;;;;;;21.08;64.30;101660.50;5091300;28;20447;-61
2022/07/19 01:14:09;;;;;;;7.25;5.45;;;;;;;21.05;64.10;101655.31;5091381;28;20067;-60
2022/07/19 01:16:34;;;;;;;8.00;5.18;;;;;;;21.05;64.05;101664.16;5091232;28;20440;-61
2022/07/19 01:18:59;;;;;;;9.10;5.80;;;;;;;21.01;64.46;101656.38;5091332;28;20058;-60
2022/07/19 01:21:26;;;;;;;9.33;5.10;;;;;;;21.03;64.34;101659.84;5091369;28;20670;-61
2022/07/19 01:23:51;;;;;;;9.23;5.07;;;;;;;21.05;64.32;101661.50;5091378;28;20604;-61
2022/07/19 01:26:17;;;;;;;7.65;5.13;;;;;;;21.02;64.57;101658.09;5091241;28;20036;-61
2022/07/19 01:28:44;;;;;;;7.10;4.78;;;;;;;20.90;65.20;101653.31;5091740;28;20115;-60
2022/07/19 01:31:10;;;;;;;6.68;5.18;;;;;;;20.89;64.76;101656.91;5094872;28;20047;-59
2022/07/19 01:33:42;;;;;;;9.23;5.65;;;;;;;20.82;64.99;101661.63;5095100;28;20032;-60
2022/07/19 01:36:09;;;;;;;7.95;5.55;;;;;;;20.78;65.26;101654.72;5094981;28;20056;-61
2022/07/19 01:38:35;;;;;;;9.68;5.50;;;;;;;20.68;65.37;101661.34;5094783;28;20028;-60
2022/07/19 01:41:00;;;;;;;9.18;5.47;;;;;;;20.60;65.64;101661.69;5095037;28;20032;-60
2022/07/19 01:43:25;;;;;;;10.52;5.95;;;;;;;20.60;65.44;101653.72;5094395;28;20040;-60
2022/07/19 01:45:53;;;;;;;7.67;5.60;;;;;;;20.46;65.92;101650.75;5094660;28;20042;-59
2022/07/19 01:48:19;;;;;;;8.13;6.22;;;;;;;20.46;65.92;101653.41;5094640;28;20354;-59
2022/07/19 01:50:44;;;;;;;11.38;6.00;;;;;;;20.41;66.02;101658.94;5094786;28;20047;-59
2022/07/19 01:53:09;;;;;;;9.30;5.50;;;;;;;20.39;66.15;101657.25;5094363;28;20601;-60
2022/07/19 01:55:35;;;;;;;10.40;5.77;;;;;;;20.27;66.49;101647.94;5094464;28;20274;-60
2022/07/19 01:58:00;;;;;;;9.48;5.57;;;;;;;20.21;66.53;101657.97;5094737;28;20278;-61
2022/07/19 02:00:25;;;;;;;8.35;5.57;;;;;;;20.15;67.18;101654.63;5094141;28;20043;-61
2022/07/19 02:02:50;;;;;;;8.55;5.13;;;;;;;20.07;67.16;101642.59;5094633;28;20462;-61
2022/07/19 02:05:16;;;;;;;9.05;6.05;;;;;;;20.10;67.53;101650.41;5094262;28;20036;-60
2022/07/19 02:07:41;;;;;;;8.88;5.03;;;;;;;20.21;67.30;101652.66;5094379;28;20066;-61
2022/07/19 02:10:07;;;;;;;6.32;5.47;;;;;;;20.17;66.95;101643.94;5094258;28;20123;-60
2022/07/19 02:12:33;;;;;;;10.40;5.80;;;;;;;20.07;67.72;101642.59;5094169;28;20143;-61
2022/07/19 02:14:58;;;;;;;9.13;5.78;;;;;;;20.10;67.76;101651.28;5094274;28;20036;-62
2022/07/19 02:17:23;;;;;;;9.87;6.43;;;;;;;20.03;67.91;101646.28;5094180;28;20123;-60
2022/07/19 02:19:48;;;;;;;11.50;6.40;;;;;;;20.01;68.20;101643.69;5094115;28;20307;-61
2022/07/19 02:22:13;;;;;;;11.73;6.50;;;;;;;20.00;68.13;101639.31;5094065;28;20274;-61
2022/07/19 02:24:42;;;;;;;10.13;7.22;;;;;;;19.95;68.34;101643.91;5094095;28;20032;-61
2022/07/19 02:27:08;;;;;;;11.20;6.88;;;;;;;19.93;68.71;101639.59;5094053;28;20070;-61
2022/07/19 02:29:33;;;;;;;12.50;6.97;;;;;;;19.90;68.91;101637.94;5093869;28;20071;-60
2022/07/19 02:31:58;;;;;;;9.43;7.30;;;;;;;19.79;69.24;101625.06;5093823;28;20059;-61
2022/07/19 02:34:23;;;;;;;10.88;7.25;;;;;;;19.88;69.08;101631.81;5093928;28;20549;-61
2022/07/19 02:36:49;;;;;;;9.50;6.87;;;;;;;19.80;69.08;101634.78;5093872;28;20046;-61
2022/07/19 02:39:14;;;;;;;12.20;7.00;;;;;;;19.83;69.41;101636.44;5093397;28;20282;-60
2022/07/19 02:41:39;;;;;;;12.20;6.63;;;;;;;19.88;69.45;101630.97;5093549;28;20038;-61
2022/07/19 02:44:04;;;;;;;8.95;6.90;;;;;;;19.88;68.91;101637.13;5093738;28;20107;-61
2022/07/19 02:46:30;;;;;;;11.70;7.30;;;;;;;19.80;69.13;101632.13;5093718;28;20777;-61
2022/07/19 02:48:56;;;;;;;9.88;7.03;;;;;;;19.82;69.13;101632.06;5093737;28;20040;-61
2022/07/19 02:51:21;;;;;;;10.15;6.70;;;;;;;19.83;69.33;101624.94;5093937;28;20040;-60
2022/07/19 02:53:46;;;;;;;10.93;6.77;;;;;;;19.78;68.75;101619.81;5093395;28;20029;-60
2022/07/19 02:56:11;;;;;;;11.52;7.03;;;;;;;19.58;69.47;101625.91;5093311;28;20304;-60
2022/07/19 02:58:37;;;;;;;8.30;6.57;;;;;;;19.52;69.72;101627.94;5093066;28;20043;-59
2022/07/19 03:01:02;;;;;;;9.63;7.20;;;;;;;19.59;69.35;101627.63;5093340;28;20270;-61
2022/07/19 03:06:13;;;;;;;10.98;7.10;;;;;;;19.62;69.19;101627.50;5092973;28;20086;-61
2022/07/19 03:08:38;;;;;;;8.90;6.93;;;;;;;19.60;69.64;101618.75;5093015;28;20442;-60
2022/07/19 03:11:04;;;;;;;12.40;7.32;;;;;;;19.59;69.37;101616.13;5093097;28;20111;-60
2022/07/19 03:13:29;;;;;;;10.07;7.60;;;;;;;19.54;69.48;101613.69;5092947;28;20028;-62
2022/07/19 03:15:55;;;;;;;10.20;6.85;;;;;;;19.58;69.39;101614.41;5093097;28;20043;-60
2022/07/19 03:18:20;;;;;;;10.55;6.93;;;;;;;19.57;69.32;101613.53;5092912;28;20224;-59
2022/07/19 03:20:45;;;;;;;11.25;7.68;;;;;;;19.51;69.33;101612.94;5092399;28;20070;-59
2022/07/19 03:23:11;;;;;;;9.30;6.72;;;;;;;19.51;69.07;101605.81;5092829;28;20043;-60
2022/07/19 03:25:36;;;;;;;9.93;7.32;;;;;;;19.48;69.38;101611.22;5092899;28;20032;-61
2022/07/19 03:28:01;;;;;;;8.75;6.40;;;;;;;19.52;69.68;101604.03;5092974;28;20036;-60
2022/07/19 03:30:26;;;;;;;9.68;6.85;;;;;;;19.47;69.10;101606.81;5092553;28;20086;-60
2022/07/19 03:32:52;;;;;;;10.75;7.55;;;;;;;19.42;69.31;101603.47;5092909;28;20043;-61
2022/07/19 03:35:17;;;;;;;10.55;7.32;;;;;;;19.40;69.16;101603.53;5092949;28;20043;-60
2022/07/19 03:37:43;;;;;;;10.82;7.00;;;;;;;19.42;69.27;101608.78;5092630;28;20036;-59
2022/07/19 03:40:09;;;;;;;15.83;7.33;;;;;;;19.34;69.76;101605.56;5092600;28;20035;-60
2022/07/19 03:42:34;;;;;;;10.52;7.05;;;;;;;19.39;69.21;101608.94;5092272;28;20376;-60
2022/07/19 03:44:59;;;;;;;11.18;7.28;;;;;;;19.31;69.83;101608.34;5092628;28;20442;-61
2022/07/19 03:47:24;;;;;;;10.40;6.85;;;;;;;19.31;69.98;101611.00;5092608;28;20042;-61
2022/07/19 03:49:50;;;;;;;12.00;7.15;;;;;;;19.23;69.59;101587.38;5092357;28;20471;-60
2022/07/19 03:52:15;;;;;;;11.35;7.80;;;;;;;19.35;69.28;101602.00;5091512;28;20038;-60
2022/07/19 03:54:40;;;;;;;11.45;7.60;;;;;;;19.31;69.56;101603.91;5092506;28;20035;-60
2022/07/19 03:57:06;;;;;;;12.45;7.90;;;;;;;19.21;70.12;101605.16;5092350;28;20039;-60
2022/07/19 03:59:32;;;;;;;12.07;8.00;;;;;;;19.18;70.50;101618.53;5092053;28;20370;-60
2022/07/19 04:01:57;;;;;;;10.20;8.23;;;;;;;19.25;70.20;101617.38;5092329;28;20270;-61
2022/07/19 04:04:22;;;;;;;12.77;9.05;;;;;;;19.29;70.02;101618.13;5092133;28;20108;-61
2022/07/19 04:06:47;;;;;;;15.13;9.82;;;;;;;19.25;69.55;101617.38;5092019;28;20638;-61
2022/07/19 04:09:13;;;;;;;14.73;10.30;;;;;;;19.23;69.23;101618.34;5091905;28;20043;-62
2022/07/19 04:11:38;;;;;;;13.20;10.25;;;;;;;19.15;69.92;101620.44;5092215;28;20107;-62
2022/07/19 04:14:03;;;;;;;12.05;9.32;;;;;;;19.04;69.98;101604.94;5092080;28;20032;-60
2022/07/19 04:16:29;;;;;;;14.20;10.20;;;;;;;19.01;70.25;101591.75;5089821;28;20028;-58
2022/07/19 04:18:54;;;;;;;13.75;10.05;;;;;;;19.20;70.26;101615.84;5091620;28;20035;-59
2022/07/19 04:21:19;;;;;;;14.57;9.60;;;;;;;19.25;69.91;101608.56;5095919;28;20028;-59
2022/07/19 04:23:45;;;;;;;13.77;9.68;;;;;;;19.19;69.86;101619.41;5092816;28;20782;-58
2022/07/19 04:26:10;;;;;;;15.33;9.47;;;;;;;19.06;70.51;101616.31;5092842;28;20062;-58
2022/07/19 04:28:35;;;;;;;14.17;9.37;;;;;;;18.92;71.37;101602.69;5095343;28;20276;-58
2022/07/19 04:31:01;;;;;;;13.25;9.68;;;;;;;19.01;71.44;101613.84;5111966;28;20409;-59
2022/07/19 04:33:26;;;;;;;12.70;9.38;;;;;;;19.05;71.10;101609.28;5112112;28;20038;-59
2022/07/19 04:35:53;;;;;;;15.02;8.90;;;;;;;19.16;71.27;101619.53;5111484;28;20120;-59
2022/07/19 04:38:19;;;;;;;13.18;9.07;;;;;;;19.26;71.02;101607.63;5111193;28;20039;-59
2022/07/19 04:40:44;;;;;;;15.13;9.18;;;;;;;19.37;70.33;101610.78;5111208;28;20034;-59
2022/07/19 04:43:09;;;;;;;15.50;8.93;;;;;;;19.27;70.37;101596.09;5111717;28;20431;-59
2022/07/19 04:45:35;;;;;;;14.45;9.10;;;;;;;19.32;70.88;101613.59;5101480;28;20024;-58
2022/07/19 04:48:00;;;;;;;16.05;10.45;;;;;;;19.31;70.92;101611.00;5092936;28;20466;-59
2022/07/19 04:50:25;;;;;;;18.10;10.40;;;;;;;19.38;70.87;101609.84;5097446;28;20032;-59
2022/07/19 04:52:51;;;;;;;19.85;10.95;;;;;;;19.48;70.79;101614.75;5091364;28;20458;-58
2022/07/19 04:55:16;;;;;;;17.35;11.00;;;;;;;19.52;71.05;101614.66;5099277;28;20114;-59
2022/07/19 04:57:42;;;;;;;18.55;10.70;;;;;;;19.60;70.81;101608.13;5101959;28;20437;-59
2022/07/19 05:00:09;;;;;;;16.27;10.63;;;;;;;19.63;70.91;101612.44;5103070;28;20046;-59
2022/07/19 05:02:35;;;;;;;19.02;10.60;;;;;;;19.71;71.06;101608.59;5102193;28;20050;-58
2022/07/19 05:05:01;;;;;;;18.92;10.80;;;;;;;19.76;71.08;101603.94;5110854;28;20269;-58
2022/07/19 05:07:26;;;;;;;16.65;10.50;;;;;;;19.80;70.54;101602.91;5110979;28;20357;-59
2022/07/19 05:09:51;;;;;;;19.80;10.75;;;;;;;19.89;70.48;101601.69;5106913;28;20124;-59
2022/07/19 05:12:17;;;;;;;17.70;11.20;;;;;;;19.95;69.87;101604.06;5115422;28;20047;-58
2022/07/19 05:14:42;;;;;;;23.33;10.77;;;;;;;19.99;70.18;101595.06;5115730;28;20036;-60
2022/07/19 05:17:07;;;;;;;18.80;11.00;;;;;;;20.06;70.45;101595.69;5115464;28;20043;-60
2022/07/19 05:19:33;;;;;;;15.13;10.13;;;;;;;20.02;70.52;101580.78;5115425;28;20027;-58
2022/07/19 05:21:58;;;;;;;17.25;9.40;;;;;;;20.17;70.56;101593.44;5115620;28;20036;-58
2022/07/19 05:24:23;;;;;;;14.00;9.20;;;;;;;20.29;70.18;101592.94;5115761;28;20032;-58
2022/07/19 05:26:49;;;;;;;17.33;10.50;;;;;;;20.36;70.09;101597.09;5115503;28;20122;-59
2022/07/19 05:29:14;;;;;;;15.60;10.07;;;;;;;20.41;69.56;101595.13;5115417;28;20648;-59
2022/07/19 05:31:39;;;;;;;15.30;10.25;;;;;;;20.49;69.45;101595.66;5115307;28;20100;-59
2022/07/19 05:34:04;;;;;;;21.05;10.93;;;;;;;20.58;69.21;101604.19;5114991;28;20103;-58
2022/07/19 05:36:30;;;;;;;17.38;12.27;;;;;;;20.67;67.39;101603.75;5115218;28;20138;-58
2022/07/19 05:38:55;;;;;;;17.45;10.82;;;;;;;20.75;66.65;101614.94;5115244;28;20407;-59
2022/07/19 05:41:21;;;;;;;18.10;12.73;;;;;;;20.81;66.82;101628.84;5115112;28;20089;-58
2022/07/19 05:43:48;;;;;;;14.45;10.77;;;;;;;20.87;66.19;101627.72;5115131;28;20031;-59
2022/07/19 05:46:13;;;;;;;19.40;13.63;;;;;;;20.97;64.56;101629.03;5114918;28;20039;-60
2022/07/19 05:48:38;;;;;;;18.80;15.05;;;;;;;21.07;63.71;101617.06;5114988;28;20046;-58
2022/07/19 05:51:04;;;;;;;18.40;15.15;;;;;;;21.15;63.23;101612.22;5114736;28;20449;-58
2022/07/19 05:53:29;;;;;;;18.30;15.43;;;;;;;21.27;62.80;101620.66;5115015;28;20034;-60
2022/07/19 05:55:55;;;;;;;21.40;15.20;;;;;;;21.34;62.40;101622.09;5114885;28;20039;-58
2022/07/19 05:58:21;;;;;;;18.83;14.98;;;;;;;21.46;62.09;101618.88;5097595;28;20136;-58
2022/07/19 06:03:31;;;;;;;18.80;15.65;;;;;;;21.68;61.19;101616.06;5094666;28;20098;-59
2022/07/19 06:05:57;;;;;;;20.60;14.85;;;;;;;21.75;60.89;101615.69;5094147;28;20478;-59
2022/07/19 06:08:23;;;;;;;17.65;14.95;;;;;;;21.84;59.62;101617.91;5094516;28;20085;-60
2022/07/19 06:10:48;;;;;;;19.23;14.63;;;;;;;21.87;59.88;101607.09;5094702;28;20040;-59
2022/07/19 06:13:14;;;;;;;16.55;13.18;;;;;;;22.01;59.27;101613.59;5094275;28;20493;-59
2022/07/19 06:15:39;;;;;;;22.02;13.98;;;;;;;22.17;58.44;101609.25;5093470;28;20518;-59
2022/07/19 06:18:04;;;;;;;23.98;13.18;;;;;;;22.30;58.00;101610.38;5102939;28;20028;-59
2022/07/19 06:20:30;;;;;;;19.63;12.50;;;;;;;22.31;57.39;101614.78;5094248;28;20758;-60
2022/07/19 06:22:55;;;;;;;20.20;12.68;;;;;;;22.42;57.36;101614.22;5092671;27;20070;-61
2022/07/19 06:25:20;;;;;;;14.52;10.82;;;;;;;22.53;57.47;101617.19;5075951;28;20036;-58
2022/07/19 06:27:45;;;;;;;15.35;11.13;;;;;;;22.70;56.73;101613.66;5093635;28;20673;-59
2022/07/19 06:30:11;;;;;;;17.50;10.47;;;;;;;22.80;56.67;101613.16;5106561;28;20040;-59
2022/07/19 06:32:36;;;;;;;11.93;9.60;;;;;;;22.95;55.02;101616.84;5114007;28;20616;-61
2022/07/19 06:35:01;;;;;;;12.10;9.38;;;;;;;23.19;53.97;101623.56;5114033;28;20027;-59
2022/07/19 06:37:27;;;;;;;10.00;8.60;;;;;;;23.22;54.14;101617.16;5113848;28;20675;-60
2022/07/19 06:39:52;;;;;;;18.03;8.60;;;;;;;23.20;54.24;101616.41;5114041;28;20800;-60
2022/07/19 06:42:17;;;;;;;16.02;8.93;;;;;;;23.24;53.52;101616.13;5095782;28;20296;-59
2022/07/19 06:44:42;;;;;;;15.53;8.70;;;;;;;23.26;53.34;101613.38;5113819;28;20039;-59
2022/07/19 06:47:08;;;;;;;10.80;8.23;;;;;;;23.26;53.42;101619.59;5114116;28;20273;-58
2022/07/19 06:49:33;;;;;;;11.17;8.10;;;;;;;23.35;53.17;101614.72;5113866;28;20027;-59
2022/07/19 06:51:58;;;;;;;14.00;7.88;;;;;;;23.39;53.17;101611.75;5113775;28;20281;-61
2022/07/19 06:54:23;;;;;;;16.17;7.87;;;;;;;23.46;52.46;101609.63;5113571;28;20033;-60
2022/07/19 06:56:49;;;;;;;13.98;7.63;;;;;;;23.50;52.76;101600.50;5113245;28;20334;-59
2022/07/19 06:59:14;;;;;;;15.52;7.88;;;;;;;23.59;53.35;101600.00;5113669;28;20039;-60
2022/07/19 07:01:40;;;;;;;15.70;7.47;;;;;;;23.66;53.32;101605.88;5113797;28;20060;-60
2022/07/19 07:04:05;;;;;;;15.55;7.15;;;;;;;23.72;52.88;101603.75;5113040;28;20036;-60
2022/07/19 07:06:30;;;;;;;12.30;7.47;;;;;;;23.84;52.13;101608.41;5113412;28;20046;-59
2022/07/19 07:08:55;;;;;;;12.07;7.72;;;;;;;23.87;51.70;101610.03;5113364;28;20032;-60
2022/07/19 07:11:21;;;;;;;12.18;7.13;;;;;;;23.92;51.78;101606.13;5113503;28;20039;-60
2022/07/19 07:13:46;;;;;;;15.82;6.80;;;;;;;24.00;51.42;101604.84;5113229;28;20031;-58
2022/07/19 07:16:11;;;;;;;12.43;5.83;;;;;;;24.04;51.75;101598.38;5113475;28;20104;-59
2022/07/19 07:18:36;;;;;;;12.32;5.72;;;;;;;24.17;51.11;101602.91;5113077;28;20324;-61
2022/07/19 07:21:02;;;;;;;8.52;5.70;;;;;;;24.28;51.93;101594.28;5112740;28;20111;-60
2022/07/19 07:23:27;;;;;;;12.80;5.88;;;;;;;24.39;49.90;101597.22;5113048;28;20027;-59
2022/07/19 07:25:53;;;;;;;19.15;5.70;;;;;;;24.61;49.90;101597.63;5113081;28;20027;-60
2022/07/19 07:28:19;;;;;;;8.73;5.40;;;;;;;24.75;49.72;101593.28;5113097;28;20462;-61
2022/07/19 07:30:44;;;;;;;15.43;5.50;;;;;;;24.89;48.64;101596.84;5112999;28;20043;-60
2022/07/19 07:33:10;;;;;;;12.25;5.32;;;;;;;25.60;47.05;101587.94;5113070;28;20056;-60
2022/07/19 07:35:35;;;;;;;13.20;4.85;;;;;;;26.15;45.84;101587.88;5112490;28;20035;-60
2022/07/19 07:38:00;;;;;;;15.07;5.50;;;;;;;26.43;45.11;101586.06;5112572;28;20073;-60
2022/07/19 07:40:25;;;;;;;9.63;4.80;;;;;;;26.41;44.80;101588.84;5112894;28;20677;-59
2022/07/19 07:42:51;;;;;;;9.95;4.78;;;;;;;26.25;45.26;101597.03;5113097;28;20040;-60
2022/07/19 07:45:16;;;;;;;10.38;4.60;;;;;;;26.09;44.51;101593.66;5112217;28;20043;-58
2022/07/19 07:47:41;;;;;;;9.23;4.45;;;;;;;26.01;45.25;101586.13;5112631;28;20031;-60
2022/07/19 07:50:07;;;;;;;8.23;4.30;;;;;;;25.92;45.78;101586.75;5112570;28;20071;-60
2022/07/19 07:52:33;;;;;;;14.77;4.80;;;;;;;25.88;44.87;101584.34;5112441;28;20450;-60
2022/07/19 07:54:59;;;;;;;11.05;3.90;;;;;;;25.92;44.74;101573.31;5112690;28;20099;-60
2022/07/19 07:57:24;;;;;;;11.07;4.30;;;;;;;25.95;44.37;101574.94;5112301;28;20450;-60
2022/07/19 07:59:49;;;;;;;8.80;4.15;;;;;;;26.04;44.15;101574.31;5112487;28;20077;-60
2022/07/19 08:02:15;;;;;;;10.10;4.07;;;;;;;26.17;44.01;101569.00;5112623;28;20038;-60
2022/07/19 08:04:40;;;;;;;8.90;3.83;;;;;;;26.27;43.67;101572.78;5112312;28;20601;-60
2022/07/19 08:07:05;;;;;;;11.60;4.03;;;;;;;26.21;42.96;101568.69;5112494;28;20308;-59
2022/07/19 08:09:31;;;;;;;10.83;3.83;;;;;;;26.31;43.42;101571.66;5112256;28;20284;-58
2022/07/19 08:11:56;;;;;;;7.93;3.80;;;;;;;26.31;42.72;101571.66;5112225;28;20353;-60
2022/07/19 08:14:21;;;;;;;12.90;4.00;;;;;;;26.37;42.64;101560.50;5112385;28;20035;-60
2022/07/19 08:16:47;;;;;;;9.95;3.97;;;;;;;26.51;42.16;101570.28;5112512;28;20085;-59
2022/07/19 08:19:12;;;;;;;11.73;3.80;;;;;;;26.62;42.30;101563.22;5112053;28;20080;-61
2022/07/19 08:21:38;;;;;;;9.57;3.92;;;;;;;26.63;42.15;101561.41;5112107;28;20277;-60
2022/07/19 08:24:04;;;;;;;9.60;4.10;;;;;;;26.78;41.51;101560.31;5112148;28;20035;-59
2022/07/19 08:26:31;;;;;;;10.48;3.83;;;;;;;27.02;40.20;101561.31;5112118;28;20043;-60
2022/07/19 08:28:56;;;;;;;9.88;3.88;;;;;;;27.19;40.81;101565.47;5112202;28;20028;-59
2022/07/19 08:31:22;;;;;;;8.35;3.50;;;;;;;27.21;39.84;101558.16;5111952;28;20059;-59
2022/07/19 08:33:47;;;;;;;8.63;3.65;;;;;;;27.31;39.83;101548.47;5111900;28;20031;-63
2022/07/19 08:36:12;;;;;;;11.15;3.95;;;;;;;27.41;39.37;101548.66;5111975;28;20475;-59
2022/07/19 08:38:38;;;;;;;6.95;3.50;;;;;;;27.46;39.96;101551.03;5111425;28;20042;-60
2022/07/19 08:41:04;;;;;;;5.25;3.40;;;;;;;27.52;40.25;101548.75;5111930;28;20047;-60
2022/07/19 08:43:30;;;;;;;8.10;3.95;;;;;;;27.65;40.15;101549.59;5112134;28;20362;-60
2022/07/19 08:45:59;;;;;;;5.18;3.90;;;;;;;27.87;39.27;101546.19;5096701;28;20040;-61
2022/07/19 08:48:26;;;;;;;8.35;3.63;;;;;;;27.92;39.45;101543.97;5091537;28;20500;-59
2022/07/19 08:50:52;;;;;;;10.25;3.97;;;;;;;27.94;39.42;101541.19;5091535;28;20435;-59
2022/07/19 08:53:18;;;;;;;7.15;3.78;;;;;;;27.97;38.53;101541.81;5100196;28;20043;-61
2022/07/19 08:55:43;;;;;;;9.05;3.90;;;;;;;28.19;37.95;101540.19;5111906;28;20036;-59
2022/07/19 08:58:09;;;;;;;8.40;3.65;;;;;;;28.21;38.17;101543.66;5111859;28;20042;-60
2022/07/19 09:00:34;;;;;;;7.97;3.85;;;;;;;28.32;37.91;101535.59;5111903;28;20070;-60
2022/07/19 09:03:02;;;;;;;10.20;3.80;;;;;;;28.44;37.11;101540.03;5111790;28;20039;-60
2022/07/19 09:05:29;;;;;;;7.15;3.50;;;;;;;28.60;37.98;101537.00;5111751;28;20100;-59
2022/07/19 09:08:03;;;;;;;7.15;3.70;;;;;;;28.71;38.35;101537.91;5111792;28;20100;-60
2022/07/19 09:10:29;;;;;;;7.93;4.07;;;;;;;28.95;37.08;101534.25;5111497;28;20369;-59
2022/07/19 09:13:14;;;;;;;6.25;3.60;;;;;;;29.32;37.45;101533.00;5111782;28;20466;-60
2022/07/19 09:15:50;;;;;;;5.80;3.60;;;;;;;29.65;35.85;101529.41;5111428;28;20055;-58
2022/07/19 09:18:23;;;;;;;6.57;3.70;;;;;;;30.70;34.09;101525.03;5111437;28;20036;-60
2022/07/19 09:20:51;;;;;;;8.27;4.03;;;;;;;31.82;32.52;101519.44;5111368;28;20461;-60
2022/07/19 09:23:17;;;;;;;8.70;4.13;;;;;;;32.99;30.64;101518.28;5111257;28;20054;-59
2022/07/19 09:25:45;;;;;;;12.10;3.97;;;;;;;34.16;29.67;101520.94;5111186;28;20517;-59
2022/07/19 09:28:11;;;;;;;6.97;3.40;;;;;;;34.79;27.31;101523.50;5111666;28;20031;-60
2022/07/19 09:30:49;;;;;;;5.80;3.58;;;;;;;35.37;27.56;101514.56;5111305;28;20032;-59
2022/07/19 09:33:23;;;;;;;5.95;3.83;;;;;;;35.47;26.23;101514.44;5111456;28;20049;-61
2022/07/19 09:35:50;;;;;;;6.75;3.47;;;;;;;35.47;26.41;101520.75;5111461;28;20035;-60
2022/07/19 09:38:42;;;;;;;7.75;4.00;;;;;;;34.87;27.52;101518.06;5111343;28;20031;-60
2022/07/19 09:41:08;;;;;;;;;;;;;;;34.63;29.54;101514.34;5112006;28;20028;-60
2022/07/19 09:43:58;;;;;;;8.38;3.95;;;;;;;33.59;29.73;101515.97;5111343;28;20352;-60
2022/07/19 09:46:40;;;;;;;7.65;3.65;;;;;;;32.91;30.41;101513.59;5110989;28;20450;-60
2022/07/19 09:49:12;;;;;;;8.27;3.33;;;;;;;32.66;30.51;101519.66;5110914;28;20480;-59
2022/07/19 09:51:40;;;;;;;6.50;3.58;;;;;;;32.50;30.48;101515.72;5114937;28;20454;-59
2022/07/19 09:54:07;;;;;;;7.82;3.42;;;;;;;32.32;30.03;101516.59;5114846;28;20031;-60
2022/07/19 09:56:33;;;;;;;9.45;3.55;;;;;;;32.30;29.77;101507.75;5114871;28;20028;-60
2022/07/19 09:58:59;;;;;;;6.28;3.65;;;;;;;32.33;29.04;101502.06;5114775;28;20088;-59
2022/07/19 10:01:25;;;;;;;4.57;3.40;;;;;;;32.45;29.01;101498.16;5114892;28;20031;-60
2022/07/19 10:03:56;;;;;;;5.32;3.40;;;;;;;32.54;29.12;101500.00;5114863;28;20031;-61
2022/07/19 10:06:23;;;;;;;7.18;3.25;;;;;;;32.64;28.12;101495.41;5115061;28;20032;-61
2022/07/19 10:08:50;;;;;;;4.88;3.15;;;;;;;32.75;28.37;101497.94;5114573;28;20031;-61
2022/07/19 10:11:15;;;;;;;5.30;3.70;;;;;;;32.78;29.36;101503.09;5114558;28;20035;-60
2022/07/19 10:13:41;;;;;;;6.80;3.60;;;;;;;32.90;28.15;101494.78;5114732;28;20036;-60
2022/07/19 10:16:10;;;;;;;8.20;3.53;;;;;;;32.94;27.31;101494.31;5114629;28;20043;-61
2022/07/19 10:18:51;;;;;;;7.70;3.25;;;;;;;33.00;28.16;101493.72;5114423;28;20366;-60
2022/07/19 10:21:16;;;;;;;5.88;3.22;;;;;;;33.22;27.18;101481.63;5096312;28;20051;-59
2022/07/19 10:23:52;;;;;;;6.47;3.05;;;;;;;33.18;26.87;101488.34;5114112;28;20087;-60
2022/07/19 10:26:37;;;;;;;8.57;3.20;;;;;;;33.30;27.55;101487.16;5113954;28;20035;-60
2022/07/19 10:29:15;;;;;;;5.05;3.17;;;;;;;33.46;27.75;101479.19;5114350;28;20058;-59
2022/07/19 10:31:42;;;;;;;5.45;3.22;;;;;;;33.51;25.85;101485.00;5113841;28;20393;-60
2022/07/19 10:34:10;;;;;;;3.65;2.83;;;;;;;33.64;25.79;101487.34;5113980;28;20427;-60
2022/07/19 10:36:39;;;;;;;6.18;3.08;;;;;;;33.77;26.35;101487.00;5114077;28;20042;-61
2022/07/19 10:39:20;;;;;;;3.83;2.92;;;;;;;33.83;26.42;101472.78;5114101;28;20035;-60
2022/07/19 10:42:04;;;;;;;8.52;3.45;;;;;;;33.97;27.17;101477.66;5114132;28;20028;-61
2022/07/19 10:44:31;;;;;;;5.65;2.88;;;;;;;34.30;26.32;101461.63;5113786;28;20069;-61
2022/07/19 10:46:56;;;;;;;5.63;3.03;;;;;;;34.31;25.09;101457.91;5114189;28;20399;-61
2022/07/19 10:49:43;;;;;;;7.75;3.10;;;;;;;34.33;26.20;101461.31;5113893;28;20039;-61
2022/07/19 10:52:26;;;;;;;8.30;3.45;;;;;;;34.40;26.33;101456.94;5114128;28;20028;-60
2022/07/19 10:55:24;;;;;;;6.90;3.05;;;;;;;34.45;25.82;101457.31;5113904;28;20092;-60
2022/07/19 10:58:09;;;;;;;5.53;2.80;;;;;;;34.55;25.95;101456.19;5113864;28;20130;-60
2022/07/19 11:00:47;;;;;;;3.53;2.67;;;;;;;34.54;26.18;101446.31;5113277;28;20513;-60
2022/07/19 11:03:25;;;;;;;5.07;3.08;;;;;;;34.83;25.90;101442.41;5113613;28;20031;-60
2022/07/19 11:06:00;;;;;;;4.95;2.90;;;;;;;34.87;24.71;101444.63;5113679;28;20555;-60
2022/07/19 11:08:33;;;;;;;4.55;2.60;;;;;;;34.88;24.63;101446.34;5113630;28;20110;-60
2022/07/19 11:11:06;;;;;;;4.40;2.47;;;;;;;34.81;24.51;101437.13;5113623;28;20032;-59
2022/07/19 11:13:31;;;;;;;4.80;2.83;;;;;;;34.78;24.19;101436.63;5113408;28;20031;-60
2022/07/19 11:15:57;;;;;;;7.18;2.75;;;;;;;34.94;24.42;101427.66;5113470;28;20040;-59
2022/07/19 11:18:22;;;;;;;7.63;2.80;;;;;;;34.92;24.68;101427.84;5113306;28;20366;-59
2022/07/19 11:20:48;;;;;;;5.45;2.72;;;;;;;34.96;24.13;101431.94;5113282;28;20059;-61
2022/07/19 11:23:18;;;;;;;4.68;3.20;;;;;;;35.02;24.71;101423.09;5113290;28;20358;-63